createdAt,value
2018-07-16T07:00:27.285Z,60.79
2018-07-16T07:00:58.907Z,60.73
2018-07-16T07:01:30.503Z,60.74
2018-07-16T07:02:02.115Z,60.75
2018-07-16T07:02:33.696Z,60.73
2018-07-16T07:03:05.301Z,60.69
2018-07-16T07:03:36.893Z,60.70
2018-07-16T07:04:08.525Z,60.73
2018-07-16T07:04:40.133Z,60.76
2018-07-16T07:05:11.726Z,60.76
2018-07-16T07:05:43.346Z,60.77
2018-07-16T07:06:14.957Z,60.76
2018-07-16T07:06:46.566Z,60.70
2018-07-16T07:07:18.160Z,60.77
2018-07-16T07:07:49.756Z,60.76
2018-07-16T07:08:21.348Z,60.75
2018-07-16T07:08:52.934Z,60.75
2018-07-16T07:09:24.577Z,60.74
2018-07-16T07:09:56.199Z,60.73
2018-07-16T07:10:27.796Z,60.71
2018-07-16T07:10:59.405Z,60.73
2018-07-16T07:11:30.996Z,60.71
2018-07-16T07:12:02.572Z,60.72
2018-07-16T07:12:34.217Z,60.70
2018-07-16T07:13:05.822Z,60.70
2018-07-16T07:13:37.423Z,60.71
2018-07-16T07:14:09.010Z,60.72
2018-07-16T07:14:40.617Z,60.66
2018-07-16T07:15:12.196Z,60.69
2018-07-16T07:15:43.789Z,60.70
2018-07-16T07:16:15.405Z,60.68
2018-07-16T07:16:46.990Z,60.66
2018-07-16T07:17:18.596Z,60.67
2018-07-16T07:17:50.249Z,60.67
2018-07-16T07:18:21.833Z,60.68
2018-07-16T07:18:53.432Z,60.68
2018-07-16T07:19:25.019Z,60.66
2018-07-16T07:19:56.601Z,60.66
2018-07-16T07:20:28.176Z,60.64
2018-07-16T07:20:59.781Z,60.63
2018-07-16T07:21:31.379Z,60.61
2018-07-16T07:22:02.955Z,60.68
2018-07-16T07:22:34.602Z,60.63
2018-07-16T07:23:06.208Z,60.67
2018-07-16T07:23:37.806Z,60.68
2018-07-16T07:24:09.463Z,60.66
2018-07-16T07:24:41.070Z,60.64
2018-07-16T07:25:12.667Z,60.64
2018-07-16T07:25:44.257Z,60.64
2018-07-16T07:26:15.851Z,60.62
2018-07-16T07:26:47.438Z,60.63
2018-07-16T07:27:19.021Z,60.61
2018-07-16T07:27:50.610Z,60.63
2018-07-16T07:28:22.224Z,60.64
2018-07-16T07:28:53.885Z,60.64
2018-07-16T07:29:25.530Z,60.63
2018-07-16T07:29:57.114Z,60.62
2018-07-16T07:30:28.689Z,60.61
2018-07-16T07:31:00.315Z,60.63
2018-07-16T07:31:31.925Z,60.64
2018-07-16T07:32:03.500Z,60.63
2018-07-16T07:32:35.100Z,60.60
2018-07-16T07:33:06.676Z,60.61
2018-07-16T07:33:38.286Z,60.58
2018-07-16T07:34:09.913Z,60.62
2018-07-16T07:34:41.517Z,60.60
2018-07-16T07:35:13.281Z,60.56
2018-07-16T07:35:44.956Z,60.60
2018-07-16T07:36:16.482Z,60.61
2018-07-16T07:36:48.076Z,60.62
2018-07-16T07:37:19.652Z,60.60
2018-07-16T07:37:51.257Z,60.59
2018-07-16T07:38:22.857Z,60.60
2018-07-16T07:38:54.465Z,60.57
2018-07-16T07:39:26.053Z,60.59
2018-07-16T07:39:57.624Z,60.56
2018-07-16T07:40:29.278Z,60.60
2018-07-16T07:41:00.879Z,60.60
2018-07-16T07:41:32.489Z,60.59
2018-07-16T07:42:04.104Z,60.60
2018-07-16T07:42:35.724Z,60.63
2018-07-16T07:43:07.310Z,60.67
2018-07-16T07:43:38.900Z,60.65
2018-07-16T07:44:10.505Z,60.62
2018-07-16T07:44:42.095Z,60.62
2018-07-16T07:45:13.677Z,60.60
2018-07-16T07:45:45.306Z,60.63
2018-07-16T07:46:16.876Z,60.64
2018-07-16T07:46:48.525Z,60.61
2018-07-16T07:47:20.134Z,60.67
2018-07-16T07:47:51.719Z,60.66
2018-07-16T07:48:23.330Z,60.66
2018-07-16T07:48:54.913Z,60.63
2018-07-16T07:49:26.515Z,60.65
2018-07-16T07:49:58.110Z,60.65
2018-07-16T07:50:29.713Z,60.63
2018-07-16T07:51:01.373Z,60.66
2018-07-16T07:51:32.989Z,60.66
2018-07-16T07:52:04.595Z,60.65
2018-07-16T07:52:36.203Z,60.67
2018-07-16T07:53:07.793Z,60.68
2018-07-16T07:53:39.402Z,60.66
2018-07-16T07:54:11.060Z,60.66
2018-07-16T07:54:42.882Z,60.70
2018-07-16T07:55:14.676Z,60.68
2018-07-16T07:55:45.905Z,60.70
2018-07-16T07:56:17.510Z,60.71
2018-07-16T07:56:49.121Z,60.70
2018-07-16T07:57:20.723Z,60.69
2018-07-16T07:57:52.301Z,60.70
2018-07-16T07:58:23.937Z,60.69
2018-07-16T07:58:55.554Z,60.72
2018-07-16T07:59:27.166Z,60.70
2018-07-16T07:59:58.763Z,60.67
2018-07-16T08:00:30.363Z,60.69
2018-07-16T08:01:01.953Z,60.71
2018-07-16T08:01:33.537Z,60.70
2018-07-16T08:02:05.132Z,60.70
2018-07-16T08:02:36.741Z,60.71
2018-07-16T08:03:08.366Z,60.71
2018-07-16T08:03:40.022Z,60.69
2018-07-16T08:04:11.629Z,60.71
2018-07-16T08:04:43.242Z,60.71
2018-07-16T08:05:14.889Z,60.75
2018-07-16T08:05:46.487Z,60.71
2018-07-16T08:06:18.080Z,60.75
2018-07-16T08:06:49.738Z,60.75
2018-07-16T08:07:21.315Z,60.72
2018-07-16T08:07:52.913Z,60.72
2018-07-16T08:08:24.489Z,60.71
2018-07-16T08:08:56.093Z,60.71
2018-07-16T08:09:27.685Z,60.77
2018-07-16T08:09:59.278Z,60.76
2018-07-16T08:10:30.860Z,60.74
2018-07-16T08:11:02.482Z,60.75
2018-07-16T08:11:34.075Z,60.74
2018-07-16T08:12:05.719Z,60.78
2018-07-16T08:12:37.312Z,60.80
2018-07-16T08:13:08.944Z,60.79
2018-07-16T08:13:40.590Z,60.80
2018-07-16T08:14:12.165Z,60.80
2018-07-16T08:14:43.792Z,60.80
2018-07-16T08:15:15.424Z,60.79
2018-07-16T08:15:47.029Z,60.83
2018-07-16T08:16:18.628Z,60.80
2018-07-16T08:16:50.249Z,60.81
2018-07-16T08:17:21.889Z,60.78
2018-07-16T08:17:53.485Z,60.78
2018-07-16T08:18:25.083Z,60.81
2018-07-16T08:18:56.703Z,60.82
2018-07-16T08:19:28.327Z,60.79
2018-07-16T08:19:59.927Z,60.82
2018-07-16T08:20:31.526Z,60.84
2018-07-16T08:21:03.196Z,60.79
2018-07-16T08:21:34.766Z,60.83
2018-07-16T08:22:06.401Z,60.83
2018-07-16T08:22:38.032Z,60.83
2018-07-16T08:23:09.629Z,60.83
2018-07-16T08:23:41.289Z,60.83
2018-07-16T08:24:12.872Z,60.82
2018-07-16T08:24:44.510Z,60.82
2018-07-16T08:25:16.101Z,60.83
2018-07-16T08:25:47.689Z,60.86
2018-07-16T08:26:19.287Z,60.84
2018-07-16T08:26:50.886Z,60.88
2018-07-16T08:27:22.481Z,60.86
2018-07-16T08:27:54.098Z,60.90
2018-07-16T08:28:25.726Z,60.88
2018-07-16T08:28:57.390Z,60.87
2018-07-16T08:29:29.004Z,60.90
2018-07-16T08:30:00.617Z,60.91
2018-07-16T08:30:32.302Z,60.89
2018-07-16T08:31:03.909Z,60.89
2018-07-16T08:31:35.527Z,60.87
2018-07-16T08:32:07.149Z,60.88
2018-07-16T08:32:38.753Z,60.87
2018-07-16T08:33:10.366Z,60.87
2018-07-16T08:33:42.034Z,60.86
2018-07-16T08:34:13.598Z,60.86
2018-07-16T08:34:45.202Z,60.87
2018-07-16T08:35:16.813Z,60.89
2018-07-16T08:35:48.449Z,60.87
2018-07-16T08:36:20.077Z,60.88
2018-07-16T08:36:51.698Z,60.88
2018-07-16T08:37:23.317Z,60.90
2018-07-16T08:37:54.906Z,60.86
2018-07-16T08:38:26.487Z,60.86
2018-07-16T08:38:58.142Z,60.85
2018-07-16T08:39:29.725Z,60.88
2018-07-16T08:40:01.324Z,60.84
2018-07-16T08:40:32.983Z,60.89
2018-07-16T08:41:04.579Z,60.86
2018-07-16T08:41:36.174Z,60.82
2018-07-16T08:42:07.766Z,60.80
2018-07-16T08:42:39.353Z,60.81
2018-07-16T08:43:10.965Z,60.84
2018-07-16T08:43:42.572Z,60.88
2018-07-16T08:44:14.219Z,60.86
2018-07-16T08:44:45.829Z,60.86
2018-07-16T08:45:17.449Z,60.89
2018-07-16T08:45:49.216Z,60.89
2018-07-16T08:46:20.824Z,60.88
2018-07-16T08:46:52.422Z,60.88
2018-07-16T08:47:24.085Z,60.85
2018-07-16T08:47:55.687Z,60.85
2018-07-16T08:48:27.267Z,60.85
2018-07-16T08:48:58.863Z,60.85
2018-07-16T08:49:30.462Z,60.86
2018-07-16T08:50:02.047Z,60.87
2018-07-16T08:50:33.638Z,60.88
2018-07-16T08:51:05.244Z,60.89
2018-07-16T08:51:36.861Z,60.86
2018-07-16T08:52:08.459Z,60.88
2018-07-16T08:52:40.134Z,60.90
2018-07-16T08:53:11.766Z,60.90
2018-07-16T08:53:43.357Z,60.87
2018-07-16T08:54:14.968Z,60.87
2018-07-16T08:54:46.613Z,60.90
2018-07-16T08:55:18.219Z,60.87
2018-07-16T08:55:49.816Z,60.86
2018-07-16T08:56:21.396Z,60.84
2018-07-16T08:56:52.976Z,60.84
2018-07-16T08:57:24.584Z,60.84
2018-07-16T08:57:56.242Z,60.85
2018-07-16T08:58:27.837Z,60.87
2018-07-16T08:58:59.416Z,60.86
2018-07-16T08:59:31.020Z,60.87
2018-07-16T09:00:02.682Z,60.85
2018-07-16T09:00:34.309Z,60.85
2018-07-16T09:01:05.899Z,60.84
2018-07-16T09:01:37.519Z,60.85
2018-07-16T09:02:09.150Z,60.85
2018-07-16T09:02:40.766Z,60.89
2018-07-16T09:03:12.448Z,60.85
2018-07-16T09:03:44.070Z,60.86
2018-07-16T09:04:15.665Z,60.83
2018-07-16T09:04:47.282Z,60.83
2018-07-16T09:05:18.864Z,60.85
2018-07-16T09:05:50.462Z,60.87
2018-07-16T09:06:22.082Z,60.87
2018-07-16T09:06:53.674Z,60.85
2018-07-16T09:07:25.262Z,60.88
2018-07-16T09:07:56.867Z,60.86
2018-07-16T09:08:28.509Z,60.85
2018-07-16T09:09:00.126Z,60.83
2018-07-16T09:09:31.704Z,60.88
2018-07-16T09:10:03.301Z,60.86
2018-07-16T09:10:34.922Z,60.89
2018-07-16T09:11:06.552Z,60.89
2018-07-16T09:11:38.150Z,60.90
2018-07-16T09:12:09.770Z,60.89
2018-07-16T09:12:41.375Z,60.89
2018-07-16T09:13:13.030Z,60.89
2018-07-16T09:13:44.672Z,60.89
2018-07-16T09:14:16.288Z,60.89
2018-07-16T09:14:47.890Z,60.89
2018-07-16T09:15:19.506Z,60.87
2018-07-16T09:15:51.107Z,60.91
2018-07-16T09:16:22.694Z,60.92
2018-07-16T09:16:54.404Z,60.91
2018-07-16T09:17:25.934Z,60.91
2018-07-16T09:17:57.532Z,60.92
2018-07-16T09:18:29.179Z,60.94
2018-07-16T09:19:00.777Z,60.94
2018-07-16T09:19:32.384Z,60.93
2018-07-16T09:20:04.007Z,60.93
2018-07-16T09:20:35.640Z,60.92
2018-07-16T09:21:07.250Z,60.93
2018-07-16T09:21:38.848Z,60.93
2018-07-16T09:22:10.445Z,60.94
2018-07-16T09:22:42.053Z,60.93
2018-07-16T09:23:13.651Z,60.92
2018-07-16T09:23:45.229Z,60.91
2018-07-16T09:24:16.842Z,60.93
2018-07-16T09:24:48.437Z,60.91
2018-07-16T09:25:20.097Z,60.92
2018-07-16T09:25:51.691Z,60.92
2018-07-16T09:26:23.301Z,60.92
2018-07-16T09:26:54.879Z,60.92
2018-07-16T09:27:26.459Z,60.93
2018-07-16T09:27:58.066Z,60.91
2018-07-16T09:28:29.730Z,60.91
2018-07-16T09:29:01.361Z,60.91
2018-07-16T09:29:32.956Z,60.92
2018-07-16T09:30:04.575Z,60.93
2018-07-16T09:30:36.169Z,60.93
2018-07-16T09:31:07.753Z,60.93
2018-07-16T09:31:39.361Z,60.92
2018-07-16T09:32:10.973Z,60.94
2018-07-16T09:32:42.568Z,60.94
2018-07-16T09:33:14.198Z,60.97
2018-07-16T09:33:45.848Z,60.98
2018-07-16T09:34:17.466Z,60.98
2018-07-16T09:34:49.109Z,60.99
2018-07-16T09:35:20.702Z,60.98
2018-07-16T09:35:52.314Z,60.98
2018-07-16T09:36:23.919Z,60.98
2018-07-16T09:36:55.513Z,60.98
2018-07-16T09:37:27.174Z,60.98
2018-07-16T09:37:58.771Z,60.99
2018-07-16T09:38:30.382Z,60.97
2018-07-16T09:39:02.031Z,60.98
2018-07-16T09:39:33.606Z,60.97
2018-07-16T09:40:05.240Z,60.97
2018-07-16T09:40:36.855Z,60.97
2018-07-16T09:41:08.454Z,60.96
2018-07-16T09:41:40.040Z,60.96
2018-07-16T09:42:11.665Z,60.97
2018-07-16T09:42:43.322Z,61.04
2018-07-16T09:43:14.931Z,61.17
2018-07-16T09:43:46.556Z,61.30
2018-07-16T09:44:18.164Z,61.37
2018-07-16T09:44:49.778Z,61.42
2018-07-16T09:45:21.434Z,61.43
2018-07-16T09:45:53.049Z,61.50
2018-07-16T09:46:24.653Z,61.55
2018-07-16T09:46:56.249Z,61.62
2018-07-16T09:47:27.842Z,61.67
2018-07-16T09:47:59.430Z,61.71
2018-07-16T09:48:31.046Z,61.74
2018-07-16T09:49:02.662Z,61.76
2018-07-16T09:49:34.239Z,61.79
2018-07-16T09:50:05.820Z,61.71
2018-07-16T09:50:37.449Z,61.62
2018-07-16T09:51:09.038Z,61.52
2018-07-16T09:51:40.653Z,61.50
2018-07-16T09:52:12.258Z,61.48
2018-07-16T09:52:43.852Z,61.43
2018-07-16T09:53:15.455Z,61.37
2018-07-16T09:53:47.075Z,61.30
2018-07-16T09:54:18.661Z,61.25
2018-07-16T09:54:50.269Z,61.20
2018-07-16T09:55:21.861Z,61.16
2018-07-16T09:55:53.508Z,61.12
2018-07-16T09:56:25.136Z,61.11
2018-07-16T09:56:56.716Z,61.11
2018-07-16T09:57:28.302Z,61.08
2018-07-16T09:57:59.880Z,61.08
2018-07-16T09:58:31.480Z,61.06
2018-07-16T09:59:03.066Z,61.04
2018-07-16T09:59:34.663Z,61.04
2018-07-16T10:00:06.308Z,61.06
2018-07-16T10:00:37.892Z,61.06
2018-07-16T10:01:09.507Z,61.05
2018-07-16T10:01:41.127Z,61.05
2018-07-16T10:02:12.774Z,61.02
2018-07-16T10:02:44.376Z,61.01
2018-07-16T10:03:15.961Z,61.01
2018-07-16T10:03:47.577Z,61.01
2018-07-16T10:04:19.157Z,61.01
2018-07-16T10:04:50.749Z,61.02
2018-07-16T10:05:22.355Z,61.01
2018-07-16T10:05:53.949Z,60.99
2018-07-16T10:06:25.528Z,61.00
2018-07-16T10:06:57.126Z,61.03
2018-07-16T10:07:28.772Z,61.00
2018-07-16T10:08:00.376Z,60.99
2018-07-16T10:08:32.061Z,60.99
2018-07-16T10:09:03.612Z,60.99
2018-07-16T10:09:35.194Z,60.98
2018-07-16T10:10:06.796Z,60.99
2018-07-16T10:10:38.389Z,61.00
2018-07-16T10:11:09.976Z,60.99
2018-07-16T10:11:41.965Z,61.00
2018-07-16T10:12:13.558Z,61.00
2018-07-16T10:12:45.194Z,61.02
2018-07-16T10:13:16.809Z,60.98
2018-07-16T10:13:48.398Z,60.98
2018-07-16T10:14:20.039Z,60.98
2018-07-16T10:14:51.619Z,60.99
2018-07-16T10:15:23.217Z,60.99
2018-07-16T10:15:54.784Z,60.99
2018-07-16T10:16:26.363Z,60.99
2018-07-16T10:16:57.973Z,60.99
2018-07-16T10:17:29.608Z,60.99
2018-07-16T10:18:01.266Z,60.97
2018-07-16T10:18:32.881Z,60.97
2018-07-16T10:19:04.501Z,60.98
2018-07-16T10:19:36.108Z,60.96
2018-07-16T10:20:07.776Z,60.95
2018-07-16T10:20:39.382Z,60.96
2018-07-16T10:21:11.008Z,60.97
2018-07-16T10:21:42.593Z,60.98
2018-07-16T10:22:14.206Z,60.98
2018-07-16T10:22:45.845Z,60.98
2018-07-16T10:23:17.425Z,61.00
2018-07-16T10:23:49.030Z,61.00
2018-07-16T10:24:20.628Z,60.98
2018-07-16T10:24:52.241Z,60.99
2018-07-16T10:25:23.857Z,60.98
2018-07-16T10:25:55.526Z,60.99
2018-07-16T10:26:27.109Z,61.00
2018-07-16T10:26:58.705Z,61.02
2018-07-16T10:27:30.285Z,61.00
2018-07-16T10:28:01.938Z,60.99
2018-07-16T10:28:33.541Z,61.02
2018-07-16T10:29:05.194Z,61.01
2018-07-16T10:29:36.838Z,60.98
2018-07-16T10:30:08.427Z,61.00
2018-07-16T10:30:40.027Z,60.99
2018-07-16T10:31:11.601Z,60.96
2018-07-16T10:31:43.180Z,61.00
2018-07-16T10:32:15.069Z,60.98
2018-07-16T10:32:46.661Z,61.00
2018-07-16T10:33:18.313Z,61.00
2018-07-16T10:33:49.998Z,61.00
2018-07-16T10:34:21.555Z,60.97
2018-07-16T10:34:53.142Z,60.97
2018-07-16T10:35:24.783Z,60.96
2018-07-16T10:35:56.377Z,60.96
2018-07-16T10:36:27.985Z,60.97
2018-07-16T10:36:59.583Z,60.96
2018-07-16T10:37:31.205Z,60.96
2018-07-16T10:38:02.841Z,60.94
2018-07-16T10:38:34.448Z,60.94
2018-07-16T10:39:06.044Z,60.94
2018-07-16T10:39:37.648Z,60.95
2018-07-16T10:40:09.261Z,60.96
2018-07-16T10:40:40.857Z,60.94
2018-07-16T10:41:12.462Z,60.93
2018-07-16T10:41:44.050Z,60.92
2018-07-16T10:42:15.636Z,60.94
2018-07-16T10:42:47.250Z,60.93
2018-07-16T10:43:18.902Z,60.93
2018-07-16T10:43:50.485Z,60.92
2018-07-16T10:44:22.076Z,60.90
2018-07-16T10:44:53.671Z,60.91
2018-07-16T10:45:25.257Z,60.90
2018-07-16T10:45:56.850Z,60.91
2018-07-16T10:46:28.458Z,60.91
2018-07-16T10:47:00.085Z,60.92
2018-07-16T10:47:31.701Z,60.94
2018-07-16T10:48:03.317Z,60.94
2018-07-16T10:48:34.957Z,60.93
2018-07-16T10:49:06.554Z,60.96
2018-07-16T10:49:38.191Z,60.95
2018-07-16T10:50:09.789Z,60.92
2018-07-16T10:50:41.404Z,60.92
2018-07-16T10:51:13.022Z,60.92
2018-07-16T10:51:44.614Z,60.90
2018-07-16T10:52:16.225Z,60.90
2018-07-16T10:52:47.841Z,60.92
2018-07-16T10:53:19.459Z,60.91
2018-07-16T10:53:51.120Z,60.91
2018-07-16T10:54:22.730Z,60.91
2018-07-16T10:54:54.342Z,60.91
2018-07-16T10:55:25.941Z,60.89
2018-07-16T10:55:57.533Z,60.90
2018-07-16T10:56:29.149Z,60.90
2018-07-16T10:57:00.766Z,60.90
2018-07-16T10:57:32.377Z,60.90
2018-07-16T10:58:03.974Z,60.90
2018-07-16T10:58:35.595Z,60.88
2018-07-16T10:59:07.258Z,60.87
2018-07-16T10:59:38.894Z,60.89
2018-07-16T11:00:10.510Z,60.89
2018-07-16T11:00:42.110Z,60.89
2018-07-16T11:01:13.718Z,60.90
2018-07-16T11:01:45.342Z,60.87
2018-07-16T11:02:16.938Z,60.88
2018-07-16T11:02:48.645Z,60.87
2018-07-16T11:03:20.267Z,60.86
2018-07-16T11:03:51.866Z,60.86
2018-07-16T11:04:23.489Z,60.87
2018-07-16T11:04:55.078Z,60.87
2018-07-16T11:05:26.747Z,60.87
2018-07-16T11:05:58.318Z,60.87
2018-07-16T11:06:29.910Z,60.89
2018-07-16T11:07:01.499Z,60.87
2018-07-16T11:07:33.093Z,60.86
2018-07-16T11:08:04.705Z,60.86
2018-07-16T11:08:36.323Z,60.85
2018-07-16T11:09:07.942Z,60.83
2018-07-16T11:09:39.532Z,60.85
2018-07-16T11:10:11.104Z,60.84
2018-07-16T11:10:42.727Z,60.84
2018-07-16T11:11:14.401Z,60.85
2018-07-16T11:11:46.001Z,60.86
2018-07-16T11:12:17.599Z,60.84
2018-07-16T11:12:49.183Z,60.84
2018-07-16T11:13:20.769Z,60.83
2018-07-16T11:13:52.390Z,60.84
2018-07-16T11:14:24.010Z,60.86
2018-07-16T11:14:55.690Z,60.80
2018-07-16T11:15:27.242Z,60.82
2018-07-16T11:15:58.848Z,60.80
2018-07-16T11:16:30.505Z,60.83
2018-07-16T11:17:02.091Z,60.79
2018-07-16T11:17:33.688Z,60.81
2018-07-16T11:18:05.344Z,60.82
2018-07-16T11:18:36.962Z,60.81
2018-07-16T11:19:08.569Z,60.79
2018-07-16T11:19:40.176Z,60.78
2018-07-16T11:20:11.840Z,60.81
2018-07-16T11:20:43.439Z,60.82
2018-07-16T11:21:15.049Z,60.84
2018-07-16T11:21:46.637Z,60.85
2018-07-16T11:22:18.250Z,60.86
2018-07-16T11:22:49.862Z,60.85
2018-07-16T11:23:21.507Z,60.83
2018-07-16T11:23:53.122Z,60.83
2018-07-16T11:24:24.720Z,60.81
2018-07-16T11:24:56.344Z,60.80
2018-07-16T11:25:28.000Z,60.81
2018-07-16T11:25:59.637Z,60.81
2018-07-16T11:26:31.252Z,60.80
2018-07-16T11:27:02.912Z,60.83
2018-07-16T11:27:35.397Z,60.83
2018-07-16T11:28:06.985Z,60.82
2018-07-16T11:28:38.596Z,60.83
2018-07-16T11:29:10.189Z,60.84
2018-07-16T11:29:41.776Z,60.91
2018-07-16T11:30:13.413Z,60.91
2018-07-16T11:30:45.002Z,60.90
2018-07-16T11:31:16.611Z,60.89
2018-07-16T11:31:48.220Z,60.85
2018-07-16T11:32:19.849Z,60.83
2018-07-16T11:32:51.458Z,60.82
2018-07-16T11:33:23.097Z,60.82
2018-07-16T11:33:54.673Z,60.80
2018-07-16T11:34:26.278Z,60.77
2018-07-16T11:34:58.098Z,60.77
2018-07-16T11:35:29.803Z,60.75
2018-07-16T11:36:01.378Z,60.77
2018-07-16T11:36:32.956Z,60.76
2018-07-16T11:37:04.586Z,60.76
2018-07-16T11:37:36.216Z,60.75
2018-07-16T11:38:07.838Z,60.76
2018-07-16T11:38:39.443Z,60.71
2018-07-16T11:39:11.073Z,60.70
2018-07-16T11:39:42.659Z,60.67
2018-07-16T11:40:14.273Z,60.70
2018-07-16T11:40:45.890Z,60.70
2018-07-16T11:41:17.509Z,60.72
2018-07-16T11:41:49.125Z,60.69
2018-07-16T11:42:20.707Z,60.66
2018-07-16T11:42:52.329Z,60.67
2018-07-16T11:43:23.937Z,60.67
2018-07-16T11:43:55.525Z,60.66
2018-07-16T11:44:27.163Z,60.68
2018-07-16T11:44:58.834Z,60.69
2018-07-16T11:45:30.474Z,60.69
2018-07-16T11:46:02.112Z,60.68
2018-07-16T11:46:33.706Z,60.68
2018-07-16T11:47:05.297Z,60.68
2018-07-16T11:47:36.910Z,60.66
2018-07-16T11:48:08.510Z,60.65
2018-07-16T11:48:40.116Z,60.63
2018-07-16T11:49:11.693Z,60.62
2018-07-16T11:49:43.340Z,60.63
2018-07-16T11:50:14.976Z,60.66
2018-07-16T11:50:46.566Z,60.64
2018-07-16T11:51:18.216Z,60.62
2018-07-16T11:51:49.832Z,60.62
2018-07-16T11:52:21.551Z,60.64
2018-07-16T11:52:53.060Z,60.65
2018-07-16T11:53:24.663Z,60.67
2018-07-16T11:53:56.257Z,60.70
2018-07-16T11:54:27.917Z,60.71
2018-07-16T11:54:59.532Z,60.72
2018-07-16T11:55:31.150Z,60.71
2018-07-16T11:56:02.753Z,60.70
2018-07-16T11:56:34.362Z,60.68
2018-07-16T11:57:05.976Z,60.67
2018-07-16T11:57:37.617Z,60.67
2018-07-16T11:58:09.205Z,60.67
2018-07-16T11:58:40.798Z,60.66
2018-07-16T11:59:12.480Z,60.68
2018-07-16T11:59:44.034Z,60.67
2018-07-16T12:00:15.703Z,60.70
2018-07-16T12:00:47.296Z,60.71
2018-07-16T12:01:18.887Z,60.71
2018-07-16T12:01:50.580Z,60.70
2018-07-16T12:02:22.132Z,60.67
2018-07-16T12:02:53.780Z,60.67
2018-07-16T12:03:25.452Z,60.65
2018-07-16T12:03:57.044Z,60.63
2018-07-16T12:04:28.662Z,60.64
2018-07-16T12:05:00.251Z,60.61
2018-07-16T12:05:31.842Z,60.60
2018-07-16T12:06:03.439Z,60.57
2018-07-16T12:06:35.059Z,60.60
2018-07-16T12:07:06.644Z,60.60
2018-07-16T12:07:38.273Z,60.61
2018-07-16T12:08:09.929Z,60.60
2018-07-16T12:08:41.521Z,60.61
2018-07-16T12:09:13.117Z,60.60
2018-07-16T12:09:44.740Z,60.60
2018-07-16T12:10:16.367Z,60.57
2018-07-16T12:10:47.985Z,60.59
2018-07-16T12:11:19.601Z,60.60
2018-07-16T12:11:51.187Z,60.60
2018-07-16T12:12:22.911Z,60.59
2018-07-16T12:12:54.507Z,60.60
2018-07-16T12:13:26.103Z,60.59
2018-07-16T12:13:57.703Z,60.58
2018-07-16T12:14:29.288Z,60.58
2018-07-16T12:15:00.870Z,60.60
2018-07-16T12:15:32.490Z,60.63
2018-07-16T12:16:04.142Z,60.58
2018-07-16T12:16:35.724Z,60.59
2018-07-16T12:17:07.326Z,60.59
2018-07-16T12:17:38.919Z,60.54
2018-07-16T12:18:10.537Z,60.54
2018-07-16T12:18:42.147Z,60.54
2018-07-16T12:19:13.733Z,60.56
2018-07-16T12:19:45.330Z,60.51
2018-07-16T12:20:16.948Z,60.53
2018-07-16T12:20:48.562Z,60.51
2018-07-16T12:21:20.183Z,60.49
2018-07-16T12:21:51.781Z,60.51
2018-07-16T12:22:23.382Z,60.50
2018-07-16T12:22:54.999Z,60.49
2018-07-16T12:23:26.613Z,60.48
2018-07-16T12:23:58.209Z,60.48
2018-07-16T12:24:29.834Z,60.48
2018-07-16T12:25:01.500Z,60.49
2018-07-16T12:25:33.108Z,60.45
2018-07-16T12:26:04.718Z,60.47
2018-07-16T12:26:36.304Z,60.47
2018-07-16T12:27:07.888Z,60.46
2018-07-16T12:27:39.491Z,60.46
2018-07-16T12:28:11.081Z,60.45
2018-07-16T12:28:42.691Z,60.45
2018-07-16T12:29:14.292Z,60.44
2018-07-16T12:29:45.919Z,60.44
2018-07-16T12:30:17.538Z,60.44
2018-07-16T12:30:49.205Z,60.45
2018-07-16T12:31:21.184Z,60.47
2018-07-16T12:31:52.768Z,60.46
2018-07-16T12:32:24.365Z,60.44
2018-07-16T12:32:56.069Z,60.43
2018-07-16T12:33:27.614Z,60.44
2018-07-16T12:33:59.212Z,60.44
2018-07-16T12:34:30.816Z,60.45
2018-07-16T12:35:02.442Z,60.44
2018-07-16T12:35:34.312Z,60.41
2018-07-16T12:36:05.894Z,60.43
2018-07-16T12:36:37.492Z,60.40
2018-07-16T12:37:09.083Z,60.41
2018-07-16T12:37:40.657Z,60.42
2018-07-16T12:38:12.270Z,60.38
2018-07-16T12:38:43.877Z,60.41
2018-07-16T12:39:15.498Z,60.38
2018-07-16T12:39:47.089Z,60.38
2018-07-16T12:40:18.672Z,60.41
2018-07-16T12:40:50.333Z,60.38
2018-07-16T12:41:21.943Z,60.33
2018-07-16T12:41:53.773Z,60.34
2018-07-16T12:42:25.265Z,60.35
2018-07-16T12:42:56.887Z,60.35
2018-07-16T12:43:28.497Z,60.35
2018-07-16T12:44:00.122Z,60.35
2018-07-16T12:44:31.744Z,60.35
2018-07-16T12:45:03.365Z,60.37
2018-07-16T12:45:35.027Z,60.39
2018-07-16T12:46:06.583Z,60.39
2018-07-16T12:46:38.188Z,60.35
2018-07-16T12:47:09.797Z,60.35
2018-07-16T12:47:41.403Z,60.37
2018-07-16T12:48:13.010Z,60.37
2018-07-16T12:48:44.632Z,60.37
2018-07-16T12:49:16.223Z,60.38
2018-07-16T12:49:47.836Z,60.38
2018-07-16T12:50:19.501Z,60.38
2018-07-16T12:50:51.095Z,60.37
2018-07-16T12:51:22.761Z,60.38
2018-07-16T12:51:54.378Z,60.38
2018-07-16T12:52:25.994Z,60.36
2018-07-16T12:52:57.592Z,60.38
2018-07-16T12:53:29.201Z,60.41
2018-07-16T12:54:00.780Z,60.43
2018-07-16T12:54:32.394Z,60.45
2018-07-16T12:55:04.378Z,60.42
2018-07-16T12:55:36.030Z,60.40
2018-07-16T12:56:07.567Z,60.39
2018-07-16T12:56:39.215Z,60.37
2018-07-16T12:57:10.852Z,60.38
2018-07-16T12:57:42.424Z,60.42
2018-07-16T12:58:14.016Z,60.42
2018-07-16T12:58:45.626Z,60.40
2018-07-16T12:59:17.249Z,60.38
2018-07-16T12:59:48.855Z,60.38
2018-07-16T13:00:20.469Z,60.39
2018-07-16T13:00:52.085Z,60.41
2018-07-16T13:01:23.662Z,60.38
2018-07-16T13:01:55.334Z,60.38
2018-07-16T13:02:26.913Z,60.40
2018-07-16T13:02:58.535Z,60.37
2018-07-16T13:03:30.153Z,60.36
2018-07-16T13:04:01.773Z,60.35
2018-07-16T13:04:33.373Z,60.35
2018-07-16T13:05:05.008Z,60.35
2018-07-16T13:05:36.632Z,60.37
2018-07-16T13:06:08.248Z,60.35
2018-07-16T13:06:39.853Z,60.37
2018-07-16T13:07:11.441Z,60.36
2018-07-16T13:07:43.050Z,60.37
2018-07-16T13:08:14.675Z,60.37
2018-07-16T13:08:46.274Z,60.39
2018-07-16T13:09:17.906Z,60.38
2018-07-16T13:09:49.502Z,60.36
2018-07-16T13:10:21.162Z,60.38
2018-07-16T13:10:52.773Z,60.39
2018-07-16T13:11:24.360Z,60.41
2018-07-16T13:11:55.969Z,60.41
2018-07-16T13:12:27.553Z,60.37
2018-07-16T13:12:59.218Z,60.37
2018-07-16T13:13:30.845Z,60.36
2018-07-16T13:14:02.469Z,60.36
2018-07-16T13:14:34.054Z,60.36
2018-07-16T13:15:05.642Z,60.35
2018-07-16T13:15:37.240Z,60.36
2018-07-16T13:16:08.842Z,60.38
2018-07-16T13:16:40.462Z,60.42
2018-07-16T13:17:12.068Z,60.41
2018-07-16T13:17:43.680Z,60.41
2018-07-16T13:18:15.355Z,60.40
2018-07-16T13:18:46.968Z,60.43
2018-07-16T13:19:18.601Z,60.42
2018-07-16T13:19:50.205Z,60.43
2018-07-16T13:20:21.825Z,60.45
2018-07-16T13:20:53.446Z,60.45
2018-07-16T13:21:25.069Z,60.42
2018-07-16T13:21:56.686Z,60.44
2018-07-16T13:22:28.290Z,60.41
2018-07-16T13:22:59.884Z,60.44
2018-07-16T13:23:31.502Z,60.42
2018-07-16T13:24:03.143Z,60.43
2018-07-16T13:24:34.745Z,60.42
2018-07-16T13:25:06.332Z,60.43
2018-07-16T13:25:37.925Z,60.41
2018-07-16T13:26:09.589Z,60.44
2018-07-16T13:26:41.206Z,60.42
2018-07-16T13:27:12.816Z,60.41
2018-07-16T13:27:44.416Z,60.43
2018-07-16T13:28:16.010Z,60.43
2018-07-16T13:28:47.596Z,60.47
2018-07-16T13:29:19.228Z,60.53
2018-07-16T13:29:50.837Z,60.55
2018-07-16T13:30:22.459Z,60.56
2018-07-16T13:30:54.064Z,60.54
2018-07-16T13:31:25.657Z,60.54
2018-07-16T13:31:57.273Z,60.53
2018-07-16T13:32:28.871Z,60.52
2018-07-16T13:33:00.489Z,60.47
2018-07-16T13:33:32.079Z,60.52
2018-07-16T13:34:03.682Z,60.53
2018-07-16T13:34:35.265Z,60.52
2018-07-16T13:35:06.909Z,60.51
2018-07-16T13:35:38.533Z,60.53
2018-07-16T13:36:10.149Z,60.52
2018-07-16T13:36:41.769Z,60.53
2018-07-16T13:37:13.358Z,60.54
2018-07-16T13:37:44.989Z,60.50
2018-07-16T13:38:16.572Z,60.52
2018-07-16T13:38:48.185Z,60.53
2018-07-16T13:39:19.800Z,60.51
2018-07-16T13:39:51.380Z,60.54
2018-07-16T13:40:23.017Z,60.53
2018-07-16T13:40:54.630Z,60.50
2018-07-16T13:41:26.221Z,60.52
2018-07-16T13:41:57.814Z,60.52
2018-07-16T13:42:29.410Z,60.47
2018-07-16T13:43:01.030Z,60.51
2018-07-16T13:43:32.694Z,60.51
2018-07-16T13:44:04.285Z,60.51
2018-07-16T13:44:35.906Z,60.51
2018-07-16T13:45:07.488Z,60.56
2018-07-16T13:45:39.091Z,60.50
2018-07-16T13:46:10.682Z,60.56
2018-07-16T13:46:42.308Z,60.53
2018-07-16T13:47:13.941Z,60.53